EYVI

Vilnius International Airport

Vilnius, Lithuania
METAR EYVI 190550Z 26009KT 9999 -SN OVC005 M03/M04 Q1012 R19/5/0294 NOSIG
Observed Flight Rules
Jan-19 @ 05:50 UTC (28 minutes ago) Instrument Flight Rules
Wind Visibility Clouds Conditions
260° at 9 knots 10,000+ meters
  • Overcast at 500' AGL
  • Light Snow
Temperatures Readings
Current -3°C / 27°F
Dewpoint -4°C / 25°F
Humidity 93%
Altimeter 29.88" Hg
Pressure 1011.92 hPa
Elevation 197
METAR EYVI 190550Z 26009KT 9999 -SN OVC005 M03/M04 Q1012 R19/5/0294 NOSIG
Observed Flight Rules
Jan-19 @ 05:50 UTC
(28 minutes ago)
IFR
Wind Visibility
260° at 9 knots 10,000+ meters
Clouds
  • Overcast at 500' AGL
Conditions
  • Light Snow
Temperature Dewpoint
-3°C / 27°F -4°C / 25°F
Humidity Altimeter Pressure
93% 29.88" Hg 1011.92 hPa